createdAt,value
2018-01-06T00:21:25.837Z,8.10
2018-01-06T00:23:54.503Z,8.10
2018-01-06T00:26:23.184Z,8.20
2018-01-06T00:28:51.837Z,8.20
2018-01-06T00:31:20.522Z,8.30
2018-01-06T00:33:48.844Z,8.20
2018-01-06T00:36:17.518Z,8.30
2018-01-06T00:38:47.041Z,8.30
2018-01-06T00:41:15.712Z,8.30
2018-01-06T00:43:45.141Z,8.30
2018-01-06T00:46:13.818Z,8.30
2018-01-06T00:48:42.474Z,8.30
2018-01-06T00:51:11.937Z,8.30
2018-01-06T00:53:40.595Z,8.30
2018-01-06T00:56:09.267Z,8.30
2018-01-06T00:58:37.929Z,8.20
2018-01-06T01:01:06.604Z,8.20
2018-01-06T01:03:35.266Z,8.20
2018-01-06T01:06:03.949Z,8.20
2018-01-06T01:08:32.614Z,8.30
2018-01-06T01:11:01.290Z,8.30
2018-01-06T01:13:29.965Z,8.20
2018-01-06T01:15:59.401Z,8.00
2018-01-06T01:18:28.077Z,8.00
2018-01-06T01:20:56.749Z,8.00
2018-01-06T01:23:26.194Z,8.00
2018-01-06T01:25:54.877Z,8.00
2018-01-06T01:28:23.545Z,8.00
2018-01-06T01:30:52.219Z,8.00
2018-01-06T01:33:20.893Z,8.00
2018-01-06T01:35:50.344Z,8.10
2018-01-06T01:38:19.026Z,8.10
2018-01-06T01:40:47.698Z,8.10
2018-01-06T01:43:16.365Z,8.10
2018-01-06T01:45:45.810Z,8.10
2018-01-06T01:48:14.522Z,8.10
2018-01-06T01:50:43.213Z,8.10
2018-01-06T01:53:11.895Z,8.10
2018-01-06T01:55:40.579Z,8.00
2018-01-06T01:58:09.301Z,8.00
2018-01-06T02:00:37.789Z,8.00
2018-01-06T02:03:07.235Z,8.00
2018-01-06T02:05:35.917Z,7.90
2018-01-06T02:08:04.593Z,7.90
2018-01-06T02:10:33.281Z,7.90
2018-01-06T02:13:01.944Z,7.90
2018-01-06T02:15:30.290Z,7.90
2018-01-06T02:17:58.953Z,7.90
2018-01-06T02:20:27.633Z,7.90
2018-01-06T02:22:56.288Z,7.80
2018-01-06T02:25:24.970Z,7.90
2018-01-06T02:27:54.390Z,7.90
2018-01-06T02:30:23.159Z,7.90
2018-01-06T02:32:52.586Z,8.00
2018-01-06T02:35:21.265Z,8.00
2018-01-06T02:37:49.917Z,8.00
2018-01-06T02:40:19.365Z,8.10
2018-01-06T02:42:48.028Z,8.10
2018-01-06T02:45:17.477Z,8.10
2018-01-06T02:47:46.141Z,8.20
2018-01-06T02:50:20.005Z,8.30
2018-01-06T02:52:48.980Z,8.30
2018-01-06T02:55:17.662Z,8.30
2018-01-06T02:57:46.327Z,8.30
2018-01-06T03:00:15.001Z,8.40
2018-01-06T03:02:43.655Z,8.50
2018-01-06T03:05:13.105Z,8.70
2018-01-06T03:07:41.768Z,8.60
2018-01-06T03:10:10.430Z,8.70
2018-01-06T03:12:39.877Z,8.70
2018-01-06T03:15:08.549Z,8.70
2018-01-06T03:17:37.225Z,8.70
2018-01-06T03:20:05.901Z,8.80
2018-01-06T03:22:35.334Z,8.80
2018-01-06T03:25:03.665Z,8.80
2018-01-06T03:27:32.340Z,8.80
2018-01-06T03:30:01.004Z,8.90
2018-01-06T03:32:29.678Z,8.90
2018-01-06T03:34:58.343Z,8.90
2018-01-06T03:37:27.018Z,8.90
2018-01-06T03:39:56.437Z,8.90
2018-01-06T03:42:24.780Z,8.90
2018-01-06T03:44:53.438Z,8.90
2018-01-06T03:47:22.114Z,8.90
2018-01-06T03:49:50.768Z,8.90
2018-01-06T03:52:20.215Z,8.90
2018-01-06T03:54:48.541Z,8.90
2018-01-06T03:57:17.985Z,8.90
2018-01-06T03:59:46.644Z,8.90
2018-01-06T04:02:15.326Z,8.80
2018-01-06T04:04:44.758Z,8.80
2018-01-06T04:07:13.429Z,8.80
2018-01-06T04:09:42.085Z,8.90
2018-01-06T04:12:11.199Z,8.90
2018-01-06T04:14:40.621Z,8.90
2018-01-06T04:17:09.298Z,8.90
2018-01-06T04:19:37.963Z,8.90
2018-01-06T04:22:07.414Z,8.90
2018-01-06T04:24:36.077Z,8.90
2018-01-06T04:27:04.753Z,8.90
2018-01-06T04:29:34.185Z,9.00
2018-01-06T04:32:02.869Z,8.90
2018-01-06T04:34:31.530Z,8.90
2018-01-06T04:37:00.973Z,8.90
2018-01-06T04:39:29.633Z,8.90
2018-01-06T04:41:58.302Z,9.00
2018-01-06T04:44:26.949Z,9.00
2018-01-06T04:46:55.621Z,9.00
2018-01-06T04:49:24.281Z,9.00
2018-01-06T04:51:52.948Z,9.00
2018-01-06T04:54:22.365Z,9.00
2018-01-06T04:56:51.799Z,9.00
2018-01-06T04:59:20.453Z,9.00
2018-01-06T05:01:49.140Z,9.00
2018-01-06T05:04:18.579Z,9.00
2018-01-06T05:06:47.265Z,9.00
2018-01-06T05:09:15.599Z,9.00
2018-01-06T05:11:45.037Z,9.00
2018-01-06T05:14:13.702Z,9.00
2018-01-06T05:16:43.145Z,9.00
2018-01-06T05:19:11.792Z,9.00
2018-01-06T05:21:40.466Z,9.00
2018-01-06T05:24:09.893Z,9.10
2018-01-06T05:26:38.561Z,9.10
2018-01-06T05:29:07.989Z,9.00
2018-01-06T05:31:36.674Z,9.10
2018-01-06T05:34:05.341Z,9.10
2018-01-06T05:36:34.786Z,9.10
2018-01-06T05:39:03.125Z,9.10
2018-01-06T05:41:32.573Z,9.10
2018-01-06T05:44:01.217Z,9.10
2018-01-06T05:46:30.662Z,9.10
2018-01-06T05:48:59.326Z,9.10
2018-01-06T05:51:27.989Z,9.10
2018-01-06T05:53:57.400Z,9.10
2018-01-06T05:56:26.853Z,9.10
2018-01-06T05:58:55.518Z,9.10
2018-01-06T06:01:24.216Z,9.10
2018-01-06T06:03:52.874Z,9.10
2018-01-06T06:06:21.569Z,9.00
2018-01-06T06:08:50.265Z,9.10
2018-01-06T06:11:18.957Z,9.10
2018-01-06T06:13:47.620Z,9.10
2018-01-06T06:16:16.302Z,9.10
2018-01-06T06:18:44.961Z,9.10
2018-01-06T06:21:13.638Z,9.10
2018-01-06T06:23:42.306Z,9.10
2018-01-06T06:26:10.985Z,9.00
2018-01-06T06:28:39.640Z,9.10
2018-01-06T06:31:08.309Z,9.00
2018-01-06T06:33:37.725Z,8.90
2018-01-06T06:36:06.400Z,8.90
2018-01-06T06:38:35.835Z,8.80
2018-01-06T06:41:04.517Z,8.80
2018-01-06T06:43:33.172Z,8.80
2018-01-06T06:46:02.621Z,8.70
2018-01-06T06:48:31.276Z,8.70
2018-01-06T06:51:00.386Z,8.60
2018-01-06T06:53:29.053Z,8.60
2018-01-06T06:55:57.842Z,8.50
2018-01-06T06:58:26.599Z,8.40
2018-01-06T07:00:56.009Z,8.40
2018-01-06T07:03:24.662Z,8.40
2018-01-06T07:05:53.343Z,8.40
2018-01-06T07:08:22.005Z,8.40
2018-01-06T07:10:50.690Z,8.40
2018-01-06T07:13:20.122Z,8.30
2018-01-06T07:15:48.793Z,8.30
2018-01-06T07:18:17.458Z,8.40
2018-01-06T07:20:46.893Z,8.30
2018-01-06T07:23:15.549Z,8.30
2018-01-06T07:25:44.999Z,8.30
2018-01-06T07:28:13.659Z,8.30
2018-01-06T07:30:42.334Z,8.30
2018-01-06T07:33:11.766Z,8.30
2018-01-06T07:35:40.449Z,8.30
2018-01-06T07:38:09.113Z,8.30
2018-01-06T07:40:38.580Z,8.30
2018-01-06T07:43:07.433Z,8.30
2018-01-06T07:45:36.105Z,8.30
2018-01-06T07:48:04.777Z,8.20
2018-01-06T07:50:34.226Z,8.20
2018-01-06T07:53:02.711Z,8.20
2018-01-06T07:55:33.130Z,8.20
2018-01-06T07:58:01.793Z,8.20
2018-01-06T08:00:37.009Z,8.20
2018-01-06T08:03:06.434Z,8.10
2018-01-06T08:05:35.118Z,8.10
2018-01-06T08:08:03.784Z,8.10
2018-01-06T08:10:33.602Z,8.00
2018-01-06T08:13:03.048Z,8.00
2018-01-06T08:15:31.746Z,8.00
2018-01-06T08:18:00.930Z,8.00
2018-01-06T08:20:29.258Z,8.00
2018-01-06T08:22:57.941Z,8.00
2018-01-06T08:25:26.620Z,8.00
2018-01-06T08:27:56.061Z,8.00
2018-01-06T08:30:24.753Z,8.00
2018-01-06T08:32:56.871Z,8.00
2018-01-06T08:35:40.140Z,8.00
2018-01-06T08:38:08.858Z,8.00
2018-01-06T08:40:38.045Z,8.10
2018-01-06T08:45:44.221Z,8.10
2018-01-06T08:48:12.884Z,8.20
2018-01-06T08:50:42.368Z,8.20
2018-01-06T08:53:11.035Z,8.20
2018-01-06T08:55:42.419Z,8.20
2018-01-06T09:01:05.551Z,8.30
2018-01-06T10:35:27.807Z,8.40
2018-01-06T10:37:57.893Z,9.60
2018-01-06T10:40:26.582Z,9.70
2018-01-06T10:42:55.246Z,9.70
2018-01-06T10:48:09.625Z,9.80
2018-01-06T10:50:38.309Z,9.90
2018-01-06T10:53:06.990Z,9.90
2018-01-06T10:55:35.689Z,10.00
2018-01-06T10:58:04.366Z,10.00
2018-01-06T11:00:38.610Z,10.10
2018-01-06T11:03:08.541Z,10.10
2018-01-06T11:05:58.907Z,10.20
2018-01-06T11:08:27.640Z,10.20
2018-01-06T11:10:56.334Z,10.20
2018-01-06T11:13:25.425Z,10.30
2018-01-06T11:15:54.111Z,10.30
2018-01-06T11:18:22.787Z,10.30
2018-01-06T11:20:51.487Z,10.30
2018-01-06T11:23:20.164Z,10.30
2018-01-06T11:25:48.666Z,10.40
2018-01-06T11:28:17.342Z,10.40
2018-01-06T11:30:46.025Z,10.50
2018-01-06T11:33:15.395Z,10.50
2018-01-06T11:35:45.092Z,10.50
2018-01-06T11:38:13.791Z,10.50
2018-01-06T11:40:42.478Z,10.50
2018-01-06T11:43:11.923Z,10.60
2018-01-06T11:48:34.546Z,10.60
2018-01-06T11:51:03.229Z,10.60
2018-01-06T11:53:31.905Z,10.60
2018-01-06T11:56:00.580Z,10.70
2018-01-06T11:58:29.242Z,10.70
2018-01-06T12:00:57.931Z,10.70
2018-01-06T12:03:26.597Z,10.70
2018-01-06T12:05:56.038Z,10.70
2018-01-06T12:08:24.704Z,10.80
2018-01-06T12:10:53.384Z,10.70
2018-01-06T12:13:22.046Z,10.70
2018-01-06T12:15:50.728Z,10.70
2018-01-06T12:18:19.397Z,10.80
2018-01-06T12:20:48.597Z,10.80
2018-01-06T12:23:19.381Z,10.80
2018-01-06T12:25:48.148Z,10.70
2018-01-06T12:28:18.898Z,10.70
2018-01-06T12:30:48.001Z,10.80
2018-01-06T12:33:17.476Z,10.80
2018-01-06T12:36:14.820Z,10.80
2018-01-06T12:38:43.489Z,10.80
2018-01-06T12:41:12.168Z,10.80
2018-01-06T12:43:41.481Z,10.80
2018-01-06T12:46:10.165Z,10.80
2018-01-06T12:48:38.906Z,10.80
2018-01-06T12:54:30.512Z,10.70
2018-01-06T12:56:59.190Z,10.70
2018-01-06T12:59:27.864Z,10.70
2018-01-06T13:01:56.559Z,10.70
2018-01-06T13:04:25.691Z,10.70
2018-01-06T13:06:54.540Z,10.70
2018-01-06T13:09:23.203Z,10.70
2018-01-06T13:11:51.886Z,10.70
2018-01-06T13:14:20.566Z,10.70
2018-01-06T13:20:28.938Z,11.40
2018-01-06T13:22:57.604Z,11.30
2018-01-06T13:25:26.275Z,11.30
2018-01-06T13:27:58.273Z,11.00
2018-01-06T13:30:27.232Z,11.00
2018-01-06T13:32:56.664Z,10.90
2018-01-06T13:35:25.346Z,10.90
2018-01-06T13:37:54.011Z,10.90
2018-01-06T13:40:22.694Z,10.80
2018-01-06T13:42:52.114Z,10.80
2018-01-06T13:45:20.460Z,10.80
2018-01-06T13:47:49.124Z,10.70
2018-01-06T13:50:17.798Z,10.80
2018-01-06T13:52:46.466Z,10.70
2018-01-06T13:55:15.162Z,10.70
2018-01-06T13:57:43.818Z,10.70
2018-01-06T14:00:13.254Z,10.70
2018-01-06T14:02:41.925Z,10.70
2018-01-06T14:05:10.610Z,10.70
2018-01-06T14:07:39.276Z,10.70
2018-01-06T14:10:08.780Z,10.60
2018-01-06T14:12:37.606Z,10.60
2018-01-06T14:15:06.298Z,10.70
2018-01-06T14:17:34.962Z,10.60
2018-01-06T14:20:03.618Z,10.60
2018-01-06T14:22:33.073Z,10.60
2018-01-06T14:25:01.559Z,10.60
2018-01-06T14:27:30.242Z,10.60
2018-01-06T14:29:58.902Z,10.50
2018-01-06T14:32:27.241Z,10.50
2018-01-06T14:34:55.913Z,10.50
2018-01-06T14:37:24.593Z,10.50
2018-01-06T14:39:53.277Z,10.50
2018-01-06T14:42:21.952Z,10.50
2018-01-06T14:44:50.657Z,10.50
2018-01-06T14:47:19.397Z,10.50
2018-01-06T14:52:26.719Z,10.40
2018-01-06T14:54:55.393Z,10.40
2018-01-06T14:57:24.097Z,10.40
2018-01-06T14:59:53.502Z,10.30
2018-01-06T15:02:22.185Z,10.20
2018-01-06T15:04:55.379Z,10.20
2018-01-06T15:07:24.518Z,10.20
2018-01-06T15:09:53.744Z,10.20
2018-01-06T15:12:23.976Z,10.20
2018-01-06T15:14:52.685Z,10.20
2018-01-06T15:17:21.394Z,10.20
2018-01-06T15:19:50.180Z,10.20
2018-01-06T15:22:25.978Z,10.10
2018-01-06T15:24:56.352Z,10.10
2018-01-06T15:39:12.940Z,10.00
2018-01-06T15:41:41.482Z,10.00
2018-01-06T15:44:10.938Z,11.70
2018-01-06T15:46:39.634Z,11.70
2018-01-06T15:49:08.359Z,12.60
2018-01-06T15:51:37.854Z,13.60
2018-01-06T15:54:06.529Z,13.50
2018-01-06T15:56:35.219Z,13.70
2018-01-06T15:59:04.781Z,13.70
2018-01-06T16:01:33.503Z,13.30
2018-01-06T16:04:02.165Z,12.70
2018-01-06T16:06:31.649Z,11.80
2018-01-06T16:09:00.346Z,11.80
2018-01-06T16:11:29.059Z,11.40
2018-01-06T16:13:57.733Z,11.20
2018-01-06T16:16:26.419Z,11.00
2018-01-06T16:18:55.126Z,10.90
2018-01-06T16:21:24.050Z,10.70
2018-01-06T16:23:53.529Z,10.50
2018-01-06T16:26:23.157Z,10.40
2018-01-06T16:28:51.843Z,10.30
2018-01-06T16:31:20.533Z,10.30
2018-01-06T16:33:49.200Z,11.10
2018-01-06T16:36:18.658Z,11.80
2018-01-06T16:38:47.323Z,12.30
2018-01-06T16:41:16.764Z,12.90
2018-01-06T16:43:45.438Z,12.90
2018-01-06T16:46:14.138Z,12.80
2018-01-06T16:48:42.809Z,12.30
2018-01-06T16:51:11.498Z,11.50
2018-01-06T16:53:40.166Z,10.90
2018-01-06T16:56:10.762Z,10.50
2018-01-06T16:58:39.440Z,10.40
2018-01-06T17:01:08.134Z,10.30
2018-01-06T17:03:36.801Z,10.10
2018-01-06T17:06:05.499Z,10.00
2018-01-06T17:08:34.180Z,9.90
2018-01-06T17:11:02.873Z,9.80
2018-01-06T17:13:31.551Z,9.70
2018-01-06T17:16:00.237Z,9.60
2018-01-06T17:18:28.907Z,9.50
2018-01-06T17:20:57.623Z,9.30
2018-01-06T17:23:25.961Z,9.20
2018-01-06T17:25:54.727Z,9.10
2018-01-06T17:28:24.162Z,9.00
2018-01-06T17:30:52.832Z,9.00
2018-01-06T17:33:21.511Z,9.10
2018-01-06T17:35:50.973Z,9.00
2018-01-06T17:38:19.625Z,9.00
2018-01-06T17:40:48.603Z,9.00
2018-01-06T17:43:17.281Z,8.90
2018-01-06T17:45:46.729Z,9.00
2018-01-06T17:48:15.398Z,8.90
2018-01-06T17:50:44.078Z,9.00
2018-01-06T17:53:12.746Z,9.00
2018-01-06T17:55:43.181Z,8.80
2018-01-06T17:58:11.857Z,8.80
2018-01-06T18:00:41.297Z,8.80
2018-01-06T18:03:09.971Z,8.80
2018-01-06T18:05:38.658Z,8.80
2018-01-06T18:08:07.321Z,8.90
2018-01-06T18:10:36.775Z,9.00
2018-01-06T18:13:05.441Z,8.90
2018-01-06T18:15:34.122Z,8.90
2018-01-06T18:18:02.790Z,9.00
2018-01-06T18:20:32.526Z,8.90
2018-01-06T18:23:04.901Z,8.80
2018-01-06T18:25:33.582Z,8.80
2018-01-06T18:28:02.249Z,8.80
2018-01-06T18:30:31.681Z,8.60
2018-01-06T18:33:00.345Z,8.60
2018-01-06T18:35:29.793Z,8.60
2018-01-06T18:37:58.130Z,8.60
2018-01-06T18:40:26.870Z,8.60
2018-01-06T18:42:56.445Z,8.50
2018-01-06T18:45:25.131Z,8.50
2018-01-06T18:47:53.889Z,8.50
2018-01-06T18:50:23.342Z,9.70
2018-01-06T18:52:52.007Z,9.70
2018-01-06T18:55:20.689Z,9.60
2018-01-06T18:57:49.347Z,9.50
2018-01-06T19:00:18.035Z,9.30
2018-01-06T19:02:46.366Z,9.10
2018-01-06T19:05:15.038Z,9.10
2018-01-06T19:07:43.507Z,9.10
2018-01-06T19:10:12.173Z,9.10
2018-01-06T19:12:42.668Z,9.10
2018-01-06T19:15:11.348Z,9.00
2018-01-06T19:17:40.013Z,9.00
2018-01-06T19:20:08.673Z,9.00
2018-01-06T19:22:53.954Z,9.00
2018-01-06T19:25:32.972Z,9.00
2018-01-06T19:28:02.409Z,8.90
2018-01-06T19:30:31.618Z,9.00
2018-01-06T19:33:00.310Z,8.90
2018-01-06T19:35:29.011Z,8.80
2018-01-06T19:37:58.749Z,8.90
2018-01-06T19:40:27.577Z,9.00
2018-01-06T19:42:56.262Z,8.90
2018-01-06T19:45:24.951Z,9.00
2018-01-06T19:47:53.625Z,8.90
2018-01-06T19:50:22.322Z,8.90
2018-01-06T19:53:09.885Z,8.90
2018-01-06T19:55:39.340Z,8.90
2018-01-06T19:58:08.786Z,8.90
2018-01-06T20:00:38.179Z,8.90
2018-01-06T20:03:11.546Z,8.90
2018-01-06T20:05:40.241Z,8.70
2018-01-06T20:08:08.964Z,8.70
2018-01-06T20:10:39.089Z,8.60
2018-01-06T20:13:08.541Z,8.60
2018-01-06T20:15:43.809Z,8.60
2018-01-06T20:18:13.389Z,8.50
2018-01-06T20:20:43.516Z,8.60
2018-01-06T20:23:12.186Z,8.60
2018-01-06T20:25:41.665Z,8.60
2018-01-06T20:28:10.201Z,8.60
2018-01-06T20:30:38.901Z,8.60
2018-01-06T20:33:07.577Z,8.70
2018-01-06T20:35:36.271Z,8.70
2018-01-06T20:38:04.973Z,8.60
2018-01-06T20:40:33.679Z,8.60
2018-01-06T20:43:02.346Z,8.50
2018-01-06T20:45:31.641Z,8.50
2018-01-06T20:48:04.437Z,8.50
2018-01-06T20:50:33.139Z,8.60
2018-01-06T20:53:01.477Z,8.60
2018-01-06T20:55:30.345Z,8.60
2018-01-06T21:03:56.336Z,8.60
2018-01-06T21:09:51.261Z,8.50
2018-01-06T21:12:20.991Z,8.30
2018-01-06T21:14:49.707Z,8.30
2018-01-06T21:17:18.410Z,8.20
2018-01-06T21:19:48.520Z,8.20
2018-01-06T21:22:18.597Z,8.20
2018-01-06T21:24:47.281Z,8.20
2018-01-06T21:30:50.123Z,8.20
2018-01-06T21:33:18.806Z,8.30
2018-01-06T21:35:48.299Z,8.30
2018-01-06T21:38:16.972Z,8.30
2018-01-06T21:40:46.314Z,8.30
2018-01-06T21:43:17.696Z,8.30
2018-01-06T22:35:46.329Z,8.10
2018-01-06T22:38:16.413Z,7.70
2018-01-06T22:40:45.136Z,7.70
2018-01-06T22:43:13.911Z,7.70
2018-01-06T22:45:44.618Z,7.50
2018-01-06T22:48:15.165Z,7.50
2018-01-06T22:50:45.990Z,7.40
2018-01-06T22:53:17.722Z,7.40
2018-01-06T22:55:50.003Z,7.40
2018-01-06T22:58:21.181Z,7.30
2018-01-06T23:00:53.486Z,7.40
2018-01-06T23:03:27.709Z,7.50
2018-01-06T23:06:04.430Z,7.50
2018-01-06T23:08:34.697Z,7.50
2018-01-06T23:11:06.658Z,7.60
2018-01-06T23:13:41.366Z,7.50
2018-01-06T23:16:11.505Z,7.50
2018-01-06T23:18:42.509Z,7.60
2018-01-06T23:21:12.159Z,7.60
2018-01-06T23:23:41.763Z,7.50
2018-01-06T23:26:11.234Z,7.40
2018-01-06T23:29:12.410Z,7.40
2018-01-06T23:37:59.484Z,7.10
2018-01-06T23:44:17.030Z,7.30
2018-01-06T23:46:46.651Z,7.10
2018-01-06T23:49:24.989Z,7.10
2018-01-06T23:52:04.098Z,7.20
2018-01-06T23:54:48.373Z,7.30
2018-01-06T23:57:55.657Z,7.40
